Time;durP1;ratioP1;P1;durP2;ratioP2;P2;SDS_P1;SDS_P2;PMS_P1;PMS_P2;Temp;Humidity;BMP_temperature;BMP_pressure;BME280_temperature;BME280_humidity;BME280_pressure;Samples;Min_cycle;Max_cycle;Signal;HPM_P1;HPM_P2
2023/02/20 00:01:17;;;;;;;5.80;3.35;;;5.90;99.90;;;;;;5011481;28;20666;-64
2023/02/20 00:03:44;;;;;;;7.75;3.47;;;5.90;99.90;;;;;;5020913;28;20127;-65
2023/02/20 00:06:10;;;;;;;5.22;3.53;;;5.90;99.90;;;;;;5028254;28;20154;-64
2023/02/20 00:08:35;;;;;;;10.00;4.82;;;5.90;99.90;;;;;;5026151;28;20077;-64
2023/02/20 00:11:01;;;;;;;7.72;4.05;;;6.00;99.90;;;;;;5013917;28;20063;-64
2023/02/20 00:13:27;;;;;;;8.88;4.88;;;6.00;99.90;;;;;;5017589;28;20057;-69
2023/02/20 00:15:53;;;;;;;11.35;5.05;;;6.00;99.90;;;;;;5008356;28;20042;-64
2023/02/20 00:18:18;;;;;;;6.68;4.25;;;6.00;99.90;;;;;;5009204;28;20472;-68
2023/02/20 00:20:44;;;;;;;6.88;4.85;;;6.10;99.90;;;;;;5007904;28;20045;-70
2023/02/20 00:23:10;;;;;;;5.93;3.50;;;6.10;99.90;;;;;;5014390;28;20037;-64
2023/02/20 00:25:35;;;;;;;8.88;5.00;;;6.10;99.90;;;;;;5015402;28;20038;-64
2023/02/20 00:28:01;;;;;;;6.22;4.20;;;6.10;99.90;;;;;;5009430;28;20481;-75
2023/02/20 00:30:27;;;;;;;10.88;4.93;;;6.10;99.90;;;;;;5016486;28;20496;-81
2023/02/20 00:32:55;;;;;;;10.57;5.30;;;6.10;99.90;;;;;;5023069;28;20400;-64
2023/02/20 00:35:22;;;;;;;4.95;3.22;;;6.20;99.90;;;;;;5019491;28;20580;-79
2023/02/20 00:37:48;;;;;;;9.57;4.63;;;6.20;99.90;;;;;;5007494;28;20085;-64
2023/02/20 00:40:15;;;;;;;6.50;5.20;;;6.20;99.90;;;;;;5008605;28;20564;-65
2023/02/20 00:42:41;;;;;;;9.77;5.15;;;6.20;99.90;;;;;;5007139;28;20455;-64
2023/02/20 00:45:09;;;;;;;8.68;4.85;;;6.20;99.90;;;;;;5006733;28;20495;-85
2023/02/20 00:47:34;;;;;;;10.88;5.72;;;6.30;99.90;;;;;;5007386;28;20104;-86
2023/02/20 00:50:00;;;;;;;11.25;5.93;;;6.20;99.90;;;;;;5008662;28;20042;-64
2023/02/20 00:52:26;;;;;;;12.25;6.40;;;6.20;99.90;;;;;;5007837;28;20050;-64
2023/02/20 00:54:52;;;;;;;12.68;6.28;;;6.20;99.90;;;;;;5013677;28;20116;-64
2023/02/20 00:57:17;;;;;;;20.35;7.20;;;6.20;99.90;;;;;;5030566;28;20468;-74
2023/02/20 00:59:43;;;;;;;9.68;7.00;;;6.20;99.90;;;;;;5005783;28;20121;-64
2023/02/20 01:02:09;;;;;;;12.88;7.68;;;6.30;99.90;;;;;;5016740;28;20045;-69
2023/02/20 01:04:35;;;;;;;9.77;5.10;;;6.30;99.90;;;;;;5010345;28;20054;-64
2023/02/20 01:07:00;;;;;;;16.52;7.60;;;6.30;99.90;;;;;;5007224;28;20108;-64
2023/02/20 01:09:27;;;;;;;11.65;5.88;;;6.30;99.90;;;;;;5007390;28;20042;-71
2023/02/20 01:11:53;;;;;;;13.40;6.45;;;6.30;99.90;;;;;;5007800;28;20428;-70
2023/02/20 01:14:19;;;;;;;13.93;7.85;;;6.40;99.90;;;;;;5006922;28;20481;-64
2023/02/20 01:16:50;;;;;;;8.60;5.32;;;6.40;99.90;;;;;;5006794;28;20049;-63
2023/02/20 01:19:17;;;;;;;11.52;7.47;;;6.40;99.90;;;;;;5007866;28;20117;-64
2023/02/20 01:21:43;;;;;;;11.75;7.22;;;6.50;99.90;;;;;;5007059;28;20052;-64
2023/02/20 01:24:09;;;;;;;12.82;5.75;;;6.50;99.90;;;;;;5008709;28;20042;-82
2023/02/20 01:26:35;;;;;;;13.32;7.93;;;6.50;99.90;;;;;;5012621;28;20419;-72
2023/02/20 01:29:02;;;;;;;14.13;7.47;;;6.50;99.90;;;;;;5007958;28;20129;-65
2023/02/20 01:31:28;;;;;;;15.95;6.78;;;6.60;99.90;;;;;;5007687;28;20046;-84
2023/02/20 01:33:54;;;;;;;8.93;6.28;;;6.60;99.90;;;;;;5006603;28;20057;-76
2023/02/20 01:36:19;;;;;;;15.52;6.97;;;6.70;99.90;;;;;;5007677;28;20121;-65
2023/02/20 01:38:47;;;;;;;16.45;7.82;;;6.70;99.90;;;;;;5006664;28;20038;-74
2023/02/20 01:41:13;;;;;;;14.40;7.15;;;6.70;99.90;;;;;;5008193;28;20428;-64
2023/02/20 01:43:39;;;;;;;15.93;7.88;;;6.70;99.90;;;;;;5014649;28;20119;-64
2023/02/20 01:46:38;;;;;;;13.43;6.85;;;6.70;99.90;;;;;;5007912;28;20494;-66
2023/02/20 01:49:12;;;;;;;19.17;8.20;;;6.80;99.90;;;;;;4975059;28;20134;-66
2023/02/20 01:51:42;;;;;;;10.48;7.32;;;6.70;99.90;;;;;;5005813;28;20065;-85
2023/02/20 01:54:13;;;;;;;7.00;5.43;;;6.70;99.90;;;;;;5011571;28;20458;-64
2023/02/20 01:56:40;;;;;;;9.27;5.80;;;6.80;99.90;;;;;;5019059;28;20049;-77
2023/02/20 01:59:07;;;;;;;10.25;5.75;;;6.80;99.90;;;;;;5011460;28;20050;-87
2023/02/20 02:01:34;;;;;;;15.82;7.95;;;6.80;99.90;;;;;;5015117;28;20042;-64
2023/02/20 02:04:03;;;;;;;9.20;6.00;;;6.80;99.90;;;;;;5015188;28;20526;-77
2023/02/20 02:06:31;;;;;;;10.95;6.90;;;6.80;99.90;;;;;;5012651;28;20069;-64
2023/02/20 02:09:05;;;;;;;14.82;8.35;;;6.70;99.90;;;;;;5012233;28;20042;-63
2023/02/20 02:11:30;;;;;;;15.27;7.65;;;6.80;99.90;;;;;;5012377;28;20455;-76
2023/02/20 02:13:56;;;;;;;15.30;8.13;;;6.80;99.90;;;;;;5014431;28;20076;-64
2023/02/20 02:16:52;;;;;;;14.65;7.65;;;6.80;99.90;;;;;;5016778;28;20407;-91
2023/02/20 02:19:48;;;;;;;15.98;8.10;;;6.80;99.90;;;;;;5030048;28;20038;-64
2023/02/20 02:22:29;;;;;;;10.00;7.30;;;6.80;99.90;;;;;;5029204;28;20159;-64
2023/02/20 02:25:07;;;;;;;11.60;6.63;;;6.80;99.90;;;;;;5028577;28;20384;-75
2023/02/20 02:28:09;;;;;;;11.57;7.03;;;6.80;99.90;;;;;;5016243;28;20054;-84
2023/02/20 02:30:41;;;;;;;4.53;3.53;;;6.80;99.90;;;;;;5010289;28;20050;-75
2023/02/20 02:33:13;;;;;;;12.10;7.88;;;6.80;99.90;;;;;;5029224;28;20069;-80
2023/02/20 02:36:29;;;;;;;19.33;7.82;;;6.80;99.90;;;;;;5025097;28;20132;-64
2023/02/20 02:39:22;;;;;;;12.88;7.43;;;6.80;99.90;;;;;;5010999;28;20042;-64
2023/02/20 02:42:09;;;;;;;14.57;6.85;;;6.80;99.90;;;;;;5011862;28;20180;-64
2023/02/20 02:44:51;;;;;;;12.70;6.75;;;6.80;99.90;;;;;;5011567;28;20053;-67
2023/02/20 02:47:30;;;;;;;8.23;6.75;;;6.80;99.90;;;;;;5015804;28;20084;-64
2023/02/20 02:50:04;;;;;;;10.27;5.85;;;6.80;99.90;;;;;;5025506;28;20045;-64
2023/02/20 02:52:47;;;;;;;15.55;7.10;;;6.80;99.90;;;;;;5009399;28;20081;-64
2023/02/20 02:55:22;;;;;;;17.40;8.07;;;6.90;99.90;;;;;;5011639;28;20042;-64
2023/02/20 02:57:48;;;;;;;14.75;7.07;;;6.90;99.90;;;;;;5012001;28;20092;-71
2023/02/20 03:00:36;;;;;;;12.75;6.45;;;6.90;99.90;;;;;;5007999;28;20053;-64
2023/02/20 03:03:05;;;;;;;11.32;4.57;;;6.80;99.90;;;;;;5011578;28;20057;-69
2023/02/20 03:05:54;;;;;;;13.45;6.70;;;6.90;99.90;;;;;;5010025;28;20068;-63
2023/02/20 03:08:36;;;;;;;14.70;7.32;;;6.80;99.90;;;;;;5018112;28;20042;-68
2023/02/20 03:11:06;;;;;;;16.60;6.97;;;6.80;99.90;;;;;;5012012;28;20045;-64
2023/02/20 03:16:55;;;;;;;14.25;5.38;;;6.80;99.90;;;;;;5020114;28;20531;-64
2023/02/20 03:19:39;;;;;;;11.10;5.90;;;6.90;99.90;;;;;;5011387;28;20045;-64
2023/02/20 03:22:13;;;;;;;17.63;7.65;;;6.90;99.90;;;;;;5007674;28;20054;-71
2023/02/20 03:24:54;;;;;;;14.98;5.03;;;7.00;99.90;;;;;;5011145;28;20501;-64
2023/02/20 03:27:37;;;;;;;18.88;8.02;;;7.00;99.90;;;;;;5013809;28;20125;-67
2023/02/20 03:30:08;;;;;;;15.55;5.90;;;6.90;99.90;;;;;;5010113;28;20038;-72
2023/02/20 03:43:46;;;;;;;21.00;8.07;;;6.90;99.90;;;;;;5009698;28;20057;-64
2023/02/20 03:46:17;;;;;;;;;;;6.90;99.90;;;;;;5015190;28;20099;-64
2023/02/20 03:48:49;;;;;;;13.77;6.47;;;6.90;99.90;;;;;;5008348;28;20248;-85
2023/02/20 03:51:15;;;;;;;24.95;8.18;;;7.00;99.90;;;;;;5010077;28;20061;-64
2023/02/20 03:53:43;;;;;;;18.80;8.32;;;6.90;99.90;;;;;;5009055;28;20510;-82
2023/02/20 03:56:14;;;;;;;19.58;7.13;;;6.90;99.90;;;;;;5008378;28;20060;-64
2023/02/20 03:58:44;;;;;;;6.93;4.72;;;7.00;99.90;;;;;;5011298;28;20058;-64
2023/02/20 04:01:14;;;;;;;23.00;7.45;;;7.00;99.90;;;;;;5012797;28;20100;-80
2023/02/20 04:03:43;;;;;;;11.17;5.37;;;7.00;99.90;;;;;;5023495;28;20068;-66
2023/02/20 04:06:11;;;;;;;15.30;6.00;;;7.00;99.90;;;;;;5009564;28;20747;-64
2023/02/20 04:08:45;;;;;;;25.20;9.25;;;7.10;99.90;;;;;;5008681;28;20491;-68
2023/02/20 04:11:18;;;;;;;19.88;8.05;;;7.10;99.90;;;;;;5009341;28;20502;-64
2023/02/20 04:13:47;;;;;;;7.25;4.50;;;7.10;99.90;;;;;;5006495;28;20404;-65
2023/02/20 04:16:13;;;;;;;20.83;6.32;;;7.20;99.90;;;;;;5013169;28;20053;-64
2023/02/20 04:18:39;;;;;;;21.83;5.38;;;7.30;99.90;;;;;;5015891;28;20050;-64
2023/02/20 04:21:16;;;;;;;16.83;6.18;;;7.30;99.90;;;;;;5009309;28;20041;-64
2023/02/20 04:23:45;;;;;;;15.50;5.68;;;7.30;99.90;;;;;;5023216;28;20117;-85
2023/02/20 04:26:20;;;;;;;19.48;7.90;;;7.30;99.90;;;;;;5008909;28;20038;-82
2023/02/20 04:28:46;;;;;;;8.52;3.45;;;7.20;99.90;;;;;;5007579;28;20089;-75
2023/02/20 04:31:14;;;;;;;21.92;8.85;;;7.30;99.90;;;;;;5009043;28;20048;-64
2023/02/20 04:33:40;;;;;;;12.93;5.35;;;7.30;99.90;;;;;;5008812;28;20492;-65
2023/02/20 04:36:06;;;;;;;18.33;5.20;;;7.30;99.90;;;;;;5007187;28;20089;-68
2023/02/20 04:38:32;;;;;;;18.95;5.80;;;7.20;99.90;;;;;;4997757;28;20097;-63
2023/02/20 04:40:57;;;;;;;21.73;8.68;;;7.30;99.90;;;;;;5007866;28;20735;-64
2023/02/20 04:43:23;;;;;;;9.15;2.88;;;7.30;99.90;;;;;;5008388;28;20045;-68
2023/02/20 04:45:49;;;;;;;24.23;8.82;;;7.30;99.90;;;;;;5018268;28;20063;-63
2023/02/20 04:48:15;;;;;;;26.92;8.25;;;7.30;99.90;;;;;;5013956;28;20045;-64
2023/02/20 04:50:40;;;;;;;22.60;6.47;;;7.20;99.90;;;;;;5008287;28;20399;-65
2023/02/20 04:53:06;;;;;;;22.17;6.18;;;7.20;99.90;;;;;;5006949;28;20068;-64
2023/02/20 04:55:32;;;;;;;27.08;7.97;;;7.30;99.90;;;;;;5007342;28;20492;-64
2023/02/20 04:57:58;;;;;;;31.75;7.95;;;7.30;99.90;;;;;;5007006;28;20125;-64
2023/02/20 05:00:25;;;;;;;15.30;5.25;;;7.40;99.90;;;;;;5008476;28;20065;-64
2023/02/20 05:02:51;;;;;;;34.80;8.48;;;7.40;99.90;;;;;;5008355;28;20038;-64
2023/02/20 05:05:19;;;;;;;25.33;9.35;;;7.30;99.90;;;;;;5007287;28;20044;-64
2023/02/20 05:07:44;;;;;;;27.20;7.15;;;7.30;99.90;;;;;;5016729;28;20071;-65
2023/02/20 05:10:19;;;;;;;21.27;8.85;;;7.30;99.90;;;;;;5010464;28;20567;-64
2023/02/20 05:12:45;;;;;;;20.95;6.90;;;7.30;99.90;;;;;;5025390;28;20045;-64
2023/02/20 05:15:12;;;;;;;33.55;7.70;;;7.30;99.90;;;;;;5016069;28;20506;-64
2023/02/20 05:17:38;;;;;;;23.42;8.65;;;7.30;99.90;;;;;;5008347;28;20050;-64
2023/02/20 05:20:05;;;;;;;14.60;6.55;;;7.30;99.90;;;;;;5006344;28;20111;-64
2023/02/20 05:22:30;;;;;;;27.95;8.90;;;7.30;99.90;;;;;;5007385;28;20548;-65
2023/02/20 05:24:56;;;;;;;27.25;7.80;;;7.30;99.90;;;;;;5008392;28;20077;-64
2023/02/20 05:27:23;;;;;;;21.27;6.82;;;7.30;99.90;;;;;;5007030;28;20469;-64
2023/02/20 05:29:51;;;;;;;16.48;5.30;;;7.40;99.90;;;;;;5009825;28;20128;-81
2023/02/20 05:32:18;;;;;;;18.42;6.53;;;7.30;99.90;;;;;;5008622;28;20049;-64
2023/02/20 05:34:44;;;;;;;19.35;6.35;;;7.40;99.90;;;;;;5010306;28;20042;-64
2023/02/20 05:37:16;;;;;;;19.20;5.97;;;7.40;99.90;;;;;;5009373;28;20419;-63
2023/02/20 05:39:42;;;;;;;26.17;6.85;;;7.40;99.90;;;;;;5007327;28;20042;-64
2023/02/20 05:42:07;;;;;;;15.02;5.97;;;7.40;99.90;;;;;;5014737;28;20366;-88
2023/02/20 05:44:34;;;;;;;18.45;6.38;;;7.40;99.90;;;;;;5005647;28;20480;-78
2023/02/20 05:47:00;;;;;;;20.05;5.55;;;7.40;99.90;;;;;;5007797;28;20054;-64
2023/02/20 05:49:26;;;;;;;21.40;8.23;;;7.40;99.90;;;;;;5006528;28;20081;-64
2023/02/20 05:51:55;;;;;;;18.77;6.38;;;7.40;99.90;;;;;;5008507;28;20085;-73
2023/02/20 05:54:21;;;;;;;13.00;5.28;;;7.40;99.90;;;;;;5006931;28;20447;-87
2023/02/20 05:56:48;;;;;;;26.40;5.90;;;7.40;99.90;;;;;;5007434;28;20046;-77
2023/02/20 05:59:17;;;;;;;20.20;5.78;;;7.40;99.90;;;;;;5008292;28;20169;-65
2023/02/20 06:01:43;;;;;;;14.80;5.30;;;7.50;99.90;;;;;;5015227;28;20045;-79
2023/02/20 06:04:09;;;;;;;22.52;6.35;;;7.40;99.90;;;;;;4994158;28;20141;-64
2023/02/20 06:06:37;;;;;;;18.10;6.18;;;7.50;99.90;;;;;;5006849;28;20038;-64
2023/02/20 06:09:06;;;;;;;23.20;6.00;;;7.50;99.90;;;;;;5008859;28;20432;-64
2023/02/20 06:11:33;;;;;;;20.38;5.80;;;7.60;99.90;;;;;;5007068;28;20053;-64
2023/02/20 06:13:59;;;;;;;17.42;4.72;;;7.70;99.90;;;;;;5025743;28;20050;-74
2023/02/20 06:16:28;;;;;;;15.55;4.88;;;7.70;99.90;;;;;;5007857;28;20046;-84
2023/02/20 06:18:55;;;;;;;12.23;5.25;;;7.70;99.90;;;;;;5006345;28;20050;-87
2023/02/20 06:21:22;;;;;;;5.95;3.05;;;7.80;99.90;;;;;;5007664;28;20041;-64
2023/02/20 06:23:49;;;;;;;15.10;5.32;;;7.80;99.90;;;;;;5007360;28;20400;-73
2023/02/20 06:26:17;;;;;;;12.00;5.35;;;7.80;99.90;;;;;;5007085;28;20054;-86
2023/02/20 06:28:43;;;;;;;18.60;5.25;;;7.80;99.90;;;;;;5006277;28;20088;-64
2023/02/20 06:31:10;;;;;;;15.48;5.35;;;7.80;99.90;;;;;;5007271;28;20117;-64
2023/02/20 06:33:36;;;;;;;9.85;4.00;;;7.90;99.90;;;;;;5008557;28;20073;-87
2023/02/20 06:36:04;;;;;;;12.30;4.10;;;7.90;99.90;;;;;;5005924;28;20038;-64
2023/02/20 06:38:30;;;;;;;11.88;4.90;;;7.90;99.90;;;;;;5013014;28;20138;-88
2023/02/20 06:40:56;;;;;;;18.90;5.88;;;8.00;99.90;;;;;;5021928;28;20042;-64
2023/02/20 06:43:21;;;;;;;5.43;1.85;;;8.00;99.90;;;;;;5028299;28;20072;-64
2023/02/20 06:45:47;;;;;;;12.10;4.00;;;8.10;99.90;;;;;;5018076;28;20046;-84
2023/02/20 06:48:13;;;;;;;10.45;3.03;;;8.00;99.90;;;;;;5010111;28;20484;-64
2023/02/20 06:50:40;;;;;;;5.03;2.28;;;8.00;99.90;;;;;;5011710;28;20045;-86
2023/02/20 06:53:06;;;;;;;19.30;4.93;;;8.00;99.90;;;;;;5011453;28;20049;-82
2023/02/20 06:55:32;;;;;;;11.60;3.83;;;8.10;99.90;;;;;;5022634;28;20049;-70
2023/02/20 06:57:58;;;;;;;6.30;3.42;;;8.10;99.90;;;;;;5008934;28;20050;-64
2023/02/20 07:00:25;;;;;;;7.72;3.35;;;8.10;99.90;;;;;;5021484;28;20048;-64
2023/02/20 07:02:51;;;;;;;17.08;4.72;;;8.10;99.90;;;;;;5011051;28;20097;-63
2023/02/20 07:05:16;;;;;;;13.38;4.47;;;8.10;99.90;;;;;;5012948;28;20065;-84
2023/02/20 07:07:42;;;;;;;8.80;3.60;;;8.10;99.90;;;;;;5011109;28;20038;-78
2023/02/20 07:10:08;;;;;;;10.52;3.00;;;8.10;99.90;;;;;;5011505;28;20519;-86
2023/02/20 07:12:38;;;;;;;6.88;3.88;;;8.10;99.90;;;;;;5010785;28;20057;-73
2023/02/20 07:15:07;;;;;;;18.80;4.18;;;8.10;99.90;;;;;;5008592;28;20050;-77
2023/02/20 07:17:33;;;;;;;17.40;3.85;;;8.10;99.90;;;;;;5022727;28;20034;-64
2023/02/20 07:19:59;;;;;;;4.80;2.78;;;8.20;99.90;;;;;;5009165;28;20096;-85
2023/02/20 07:22:24;;;;;;;10.07;3.13;;;8.20;99.90;;;;;;5010070;28;20057;-74
2023/02/20 07:24:53;;;;;;;16.85;4.43;;;8.10;99.90;;;;;;5012586;28;20109;-64
2023/02/20 07:27:20;;;;;;;5.20;3.28;;;8.20;99.90;;;;;;5012823;28;20124;-63
2023/02/20 07:29:47;;;;;;;8.45;2.40;;;8.20;99.90;;;;;;5013444;28;20079;-64
2023/02/20 07:32:14;;;;;;;26.40;5.35;;;8.20;99.90;;;;;;5009963;28;20030;-64
2023/02/20 07:34:40;;;;;;;7.03;2.92;;;8.20;99.90;;;;;;5013007;28;20412;-78
2023/02/20 07:37:06;;;;;;;11.07;3.25;;;8.20;99.90;;;;;;5016009;28;20049;-64
2023/02/20 07:39:31;;;;;;;4.93;1.83;;;8.20;99.90;;;;;;5027566;28;20061;-64
2023/02/20 07:41:57;;;;;;;9.77;3.00;;;8.20;99.90;;;;;;5025453;28;20136;-64
2023/02/20 07:44:23;;;;;;;13.82;4.03;;;8.20;99.90;;;;;;5028389;28;20369;-65
2023/02/20 07:46:48;;;;;;;11.60;3.28;;;8.20;99.90;;;;;;5024343;28;20044;-63
2023/02/20 07:49:14;;;;;;;12.15;4.30;;;8.20;99.90;;;;;;5014993;28;20384;-65
2023/02/20 07:51:40;;;;;;;10.73;3.50;;;8.30;99.90;;;;;;5012209;28;20053;-63
2023/02/20 07:54:05;;;;;;;10.57;3.85;;;8.30;99.90;;;;;;5010397;28;20042;-64
2023/02/20 07:56:31;;;;;;;15.80;5.35;;;8.30;99.90;;;;;;5022137;28;20042;-85
2023/02/20 07:58:57;;;;;;;6.60;2.55;;;8.30;99.90;;;;;;5026123;28;20503;-64
2023/02/20 08:01:24;;;;;;;17.42;4.97;;;8.20;99.90;;;;;;5016300;28;20104;-64
2023/02/20 08:03:49;;;;;;;4.07;2.10;;;8.30;99.90;;;;;;5028726;28;20573;-63
2023/02/20 08:06:16;;;;;;;6.57;2.25;;;8.30;99.90;;;;;;5008151;28;20033;-70
2023/02/20 08:08:45;;;;;;;6.80;3.10;;;8.40;99.90;;;;;;5014247;28;20076;-64
2023/02/20 08:11:11;;;;;;;6.75;2.90;;;8.40;99.90;;;;;;5007486;28;20125;-74
2023/02/20 08:13:37;;;;;;;13.88;4.60;;;8.40;99.90;;;;;;5026715;28;20136;-64
2023/02/20 08:16:03;;;;;;;6.40;2.08;;;8.50;99.90;;;;;;5008866;28;20045;-64
2023/02/20 08:18:29;;;;;;;6.55;3.47;;;8.50;99.90;;;;;;5016330;28;20046;-64
2023/02/20 08:20:54;;;;;;;3.25;2.58;;;8.50;99.90;;;;;;5012354;28;20104;-64
2023/02/20 08:23:23;;;;;;;15.73;4.53;;;8.60;99.90;;;;;;5013710;28;20041;-64
2023/02/20 08:25:49;;;;;;;3.47;2.10;;;8.60;99.90;;;;;;5018831;28;20045;-64
2023/02/20 08:28:14;;;;;;;12.10;4.05;;;8.60;99.90;;;;;;5002688;28;20040;-71
2023/02/20 08:30:40;;;;;;;5.15;2.83;;;8.60;99.90;;;;;;5004766;28;20073;-64
2023/02/20 08:33:06;;;;;;;7.85;2.92;;;8.70;99.90;;;;;;5011847;28;20041;-66
2023/02/20 08:35:35;;;;;;;10.90;3.13;;;8.70;99.90;;;;;;5008362;28;20073;-64
2023/02/20 08:38:02;;;;;;;3.00;2.13;;;8.70;99.90;;;;;;5010629;28;20041;-64
2023/02/20 08:40:28;;;;;;;9.18;2.50;;;8.70;99.90;;;;;;5009574;28;20053;-64
2023/02/20 08:42:54;;;;;;;3.92;2.67;;;8.80;99.90;;;;;;5008746;28;20046;-64
2023/02/20 08:45:20;;;;;;;6.53;3.17;;;8.80;99.90;;;;;;5010361;28;20472;-64
2023/02/20 08:47:47;;;;;;;5.13;2.17;;;8.80;99.90;;;;;;5010603;28;20064;-67
2023/02/20 08:50:14;;;;;;;3.10;1.70;;;8.90;99.90;;;;;;5006449;28;20507;-65
2023/02/20 08:52:42;;;;;;;3.92;2.30;;;8.90;99.90;;;;;;5016940;28;20072;-75
2023/02/20 08:55:08;;;;;;;2.45;2.25;;;8.90;99.90;;;;;;5015605;28;20041;-66
2023/02/20 08:57:34;;;;;;;7.05;2.03;;;9.00;99.90;;;;;;5011444;28;20513;-64
2023/02/20 08:59:59;;;;;;;3.47;1.88;;;9.00;99.90;;;;;;5018558;28;20111;-67
2023/02/20 09:02:27;;;;;;;8.55;2.45;;;8.90;99.90;;;;;;5012403;28;20489;-64
2023/02/20 09:04:54;;;;;;;21.17;3.88;;;8.90;99.90;;;;;;5016855;28;20114;-64
2023/02/20 09:07:21;;;;;;;5.20;2.50;;;9.00;99.90;;;;;;5009800;28;20084;-64
2023/02/20 09:09:47;;;;;;;6.80;3.47;;;9.00;99.90;;;;;;5011776;28;20033;-64
2023/02/20 09:12:13;;;;;;;4.68;1.95;;;9.00;99.90;;;;;;5020160;28;20045;-63
2023/02/20 09:14:38;;;;;;;6.32;2.40;;;9.00;99.90;;;;;;5015702;28;20143;-64
2023/02/20 09:17:05;;;;;;;6.43;2.45;;;9.00;99.90;;;;;;5006839;28;20132;-64
2023/02/20 09:19:31;;;;;;;8.80;2.15;;;9.00;99.90;;;;;;5006713;28;20038;-65
2023/02/20 09:21:57;;;;;;;5.00;2.33;;;9.00;99.90;;;;;;5008320;28;20045;-64
2023/02/20 09:24:22;;;;;;;4.63;2.38;;;8.90;99.90;;;;;;5008505;28;20044;-71
2023/02/20 09:26:48;;;;;;;6.00;3.03;;;8.90;99.90;;;;;;5008642;28;20046;-68
2023/02/20 09:29:14;;;;;;;2.13;2.00;;;8.90;99.90;;;;;;5015532;28;20036;-63
2023/02/20 09:31:39;;;;;;;6.32;3.20;;;8.90;99.90;;;;;;5013851;28;20045;-64
2023/02/20 09:34:05;;;;;;;4.88;2.10;;;8.90;99.90;;;;;;5008131;28;20052;-72
2023/02/20 09:36:31;;;;;;;4.45;2.33;;;8.90;99.90;;;;;;5013155;28;20045;-64
2023/02/20 09:38:57;;;;;;;4.00;2.00;;;8.90;99.90;;;;;;5009029;28;20049;-64
2023/02/20 09:41:53;;;;;;;5.70;2.05;;;8.90;99.90;;;;;;5007197;28;20037;-68
2023/02/20 09:44:22;;;;;;;8.25;2.75;;;8.90;99.90;;;;;;5008207;28;20531;-64
2023/02/20 09:46:49;;;;;;;9.55;3.15;;;8.90;99.90;;;;;;5026239;28;20582;-64
2023/02/20 09:49:15;;;;;;;5.80;1.95;;;8.90;99.90;;;;;;5015640;28;20045;-64
2023/02/20 09:52:03;;;;;;;9.10;2.95;;;9.00;99.90;;;;;;5010973;28;20060;-63
2023/02/20 09:54:43;;;;;;;5.43;2.42;;;9.00;99.90;;;;;;5016891;28;20432;-82
2023/02/20 09:57:14;;;;;;;7.00;2.72;;;9.00;99.90;;;;;;5010889;28;20121;-79
2023/02/20 10:00:00;;;;;;;2.72;1.77;;;9.00;99.90;;;;;;5007369;28;20073;-79
2023/02/20 10:02:30;;;;;;;3.38;2.42;;;9.00;99.90;;;;;;5008669;28;20053;-64
2023/02/20 10:05:03;;;;;;;8.70;2.60;;;9.10;99.90;;;;;;5019491;28;20040;-65
2023/02/20 10:07:33;;;;;;;7.43;2.08;;;9.10;99.90;;;;;;5020250;28;20033;-64
2023/02/20 10:10:01;;;;;;;3.85;1.63;;;9.10;99.90;;;;;;5020573;28;20077;-74
2023/02/20 10:12:48;;;;;;;7.18;2.45;;;9.10;99.90;;;;;;5014592;28;20045;-64
2023/02/20 10:15:23;;;;;;;5.03;1.65;;;9.10;99.90;;;;;;5012115;28;20045;-79
2023/02/20 10:18:33;;;;;;;2.95;1.73;;;9.10;99.90;;;;;;5011451;28;20042;-69
2023/02/20 10:21:29;;;;;;;4.03;1.83;;;9.10;99.90;;;;;;5006727;28;20049;-64
2023/02/20 10:24:07;;;;;;;6.45;2.92;;;9.20;99.90;;;;;;5018917;28;20046;-68
2023/02/20 10:26:38;;;;;;;6.75;1.63;;;9.20;99.90;;;;;;5017322;28;20041;-64
2023/02/20 10:29:24;;;;;;;9.15;2.75;;;9.20;99.90;;;;;;5041107;28;20056;-67
2023/02/20 10:32:14;;;;;;;6.72;2.25;;;9.20;99.90;;;;;;5017911;28;20041;-87
2023/02/20 10:35:03;;;;;;;11.27;3.60;;;9.20;99.90;;;;;;5009510;28;20041;-74
2023/02/20 10:37:37;;;;;;;8.80;3.03;;;9.30;99.90;;;;;;5015573;28;20480;-64
2023/02/20 10:40:37;;;;;;;2.92;2.40;;;9.40;99.90;;;;;;5012195;28;20049;-85
2023/02/20 10:43:19;;;;;;;3.42;1.92;;;9.40;99.90;;;;;;5020822;28;20093;-81
2023/02/20 10:46:06;;;;;;;5.95;2.72;;;9.50;99.90;;;;;;5014239;28;20046;-64
2023/02/20 10:48:34;;;;;;;7.68;2.70;;;9.50;99.90;;;;;;5012899;28;20085;-64
2023/02/20 10:51:26;;;;;;;5.35;3.50;;;9.50;99.90;;;;;;5011371;28;20045;-64
2023/02/20 10:53:58;;;;;;;7.25;2.22;;;9.50;99.90;;;;;;5024516;28;20428;-64
2023/02/20 10:56:36;;;;;;;5.47;2.15;;;9.50;99.90;;;;;;5015503;28;20084;-64
2023/02/20 10:59:21;;;;;;;1.42;1.33;;;9.50;99.90;;;;;;5017886;28;20037;-65
2023/02/20 11:01:51;;;;;;;5.57;2.42;;;9.50;99.90;;;;;;5017825;28;20064;-70
2023/02/20 11:04:47;;;;;;;4.80;2.97;;;9.60;99.90;;;;;;5010663;28;20045;-64
2023/02/20 11:07:15;;;;;;;7.72;3.60;;;9.70;99.90;;;;;;5019637;28;20573;-73
2023/02/20 11:09:41;;;;;;;5.43;2.42;;;9.70;99.90;;;;;;5011159;28;20042;-63
2023/02/20 11:12:17;;;;;;;4.03;2.53;;;9.80;99.90;;;;;;5011770;28;20061;-71
2023/02/20 11:14:46;;;;;;;4.22;3.10;;;9.80;99.90;;;;;;5012003;28;20037;-70
2023/02/20 11:17:25;;;;;;;8.13;3.33;;;9.90;99.90;;;;;;5018247;28;20423;-65
2023/02/20 11:19:54;;;;;;;8.13;3.22;;;9.90;99.90;;;;;;5023236;28;20050;-64
2023/02/20 11:22:40;;;;;;;7.70;2.25;;;9.90;99.90;;;;;;5001119;28;20069;-64
2023/02/20 11:25:25;;;;;;;5.18;1.60;;;9.90;99.90;;;;;;5024347;28;20061;-64
2023/02/20 11:27:59;;;;;;;10.35;3.63;;;10.00;99.90;;;;;;5022445;28;20418;-65
2023/02/20 11:30:34;;;;;;;3.92;2.17;;;10.00;99.90;;;;;;5025140;28;20034;-63
2023/02/20 11:33:14;;;;;;;8.45;2.72;;;10.00;99.90;;;;;;5014583;28;20060;-64
2023/02/20 11:36:13;;;;;;;8.60;2.50;;;10.00;99.90;;;;;;5010588;28;20560;-64
2023/02/20 11:38:41;;;;;;;8.35;3.25;;;10.00;99.90;;;;;;5008226;28;20185;-64
2023/02/20 11:41:34;;;;;;;4.93;2.50;;;10.10;99.90;;;;;;5011229;28;20041;-63
2023/02/20 11:44:11;;;;;;;7.43;2.55;;;10.10;99.90;;;;;;5015318;28;20420;-64
2023/02/20 11:46:37;;;;;;;10.95;3.15;;;10.10;99.90;;;;;;5009423;28;20061;-65
2023/02/20 11:49:10;;;;;;;4.38;2.25;;;10.20;99.90;;;;;;5011658;28;20042;-64
2023/02/20 11:51:38;;;;;;;19.48;2.88;;;10.20;99.90;;;;;;5011771;28;20104;-64
2023/02/20 11:54:14;;;;;;;7.20;2.90;;;10.30;99.90;;;;;;5018030;28;20056;-69
2023/02/20 11:57:05;;;;;;;15.00;3.67;;;10.30;99.90;;;;;;5013043;28;20050;-63
2023/02/20 11:59:40;;;;;;;2.30;1.48;;;10.30;99.90;;;;;;5014855;28;20045;-69
2023/02/20 12:02:21;;;;;;;5.78;2.42;;;10.30;99.90;;;;;;5009014;28;20107;-64
2023/02/20 12:05:04;;;;;;;7.32;3.10;;;10.30;99.90;;;;;;5009888;28;20068;-64
2023/02/20 12:07:51;;;;;;;6.35;2.17;;;10.20;99.90;;;;;;5026210;28;20049;-64
2023/02/20 12:10:20;;;;;;;7.35;2.63;;;10.20;99.90;;;;;;5009168;28;20128;-64
2023/02/20 12:12:46;;;;;;;6.20;2.17;;;10.20;99.90;;;;;;5012047;28;20038;-64
2023/02/20 12:15:18;;;;;;;9.02;2.20;;;10.20;99.90;;;;;;5018299;28;20049;-64
2023/02/20 12:18:13;;;;;;;6.75;2.13;;;10.20;99.90;;;;;;5012562;28;20034;-64
2023/02/20 12:20:51;;;;;;;8.63;2.65;;;10.30;99.90;;;;;;5010445;28;20042;-64
2023/02/20 12:23:43;;;;;;;5.28;2.40;;;10.20;99.90;;;;;;5016921;28;20440;-64
2023/02/20 12:26:33;;;;;;;5.22;2.00;;;10.30;99.90;;;;;;5009362;28;20041;-64
2023/02/20 12:29:26;;;;;;;3.13;2.08;;;10.30;99.90;;;;;;5015579;28;20047;-66
2023/02/20 12:31:59;;;;;;;3.17;1.60;;;10.40;99.90;;;;;;5012439;28;21005;-64
2023/02/20 12:34:37;;;;;;;5.88;2.97;;;10.40;99.90;;;;;;5013419;28;20042;-64
2023/02/20 12:37:24;;;;;;;2.08;1.55;;;10.40;99.90;;;;;;5014347;28;20187;-68
2023/02/20 12:40:07;;;;;;;6.68;2.20;;;10.40;99.90;;;;;;5010980;28;20083;-69
2023/02/20 12:43:00;;;;;;;14.23;3.60;;;10.40;99.90;;;;;;5013707;28;20079;-78
2023/02/20 12:45:34;;;;;;;9.15;2.58;;;10.40;99.90;;;;;;5010044;28;20045;-80
2023/02/20 12:48:08;;;;;;;12.25;4.07;;;10.40;99.90;;;;;;5015364;28;20500;-64
2023/02/20 12:50:57;;;;;;;5.97;2.70;;;10.40;99.90;;;;;;5011857;28;20049;-64
2023/02/20 12:53:41;;;;;;;8.15;2.70;;;10.50;99.90;;;;;;5003983;28;20041;-75
2023/02/20 12:56:22;;;;;;;4.25;2.28;;;10.50;99.90;;;;;;5009166;28;20041;-79
2023/02/20 12:59:17;;;;;;;14.15;2.75;;;10.50;99.90;;;;;;5010302;28;20048;-64
2023/02/20 13:01:43;;;;;;;10.88;2.67;;;10.50;99.90;;;;;;5000991;28;20053;-64
2023/02/20 13:04:28;;;;;;;3.70;1.95;;;10.50;99.90;;;;;;5013664;28;20052;-76
2023/02/20 13:07:09;;;;;;;5.95;2.33;;;10.50;99.90;;;;;;5012518;28;20373;-64
2023/02/20 13:09:43;;;;;;;5.93;2.97;;;10.50;99.90;;;;;;5009357;28;20077;-63
2023/02/20 13:12:15;;;;;;;6.55;2.83;;;10.50;99.90;;;;;;5008591;28;20492;-64
2023/02/20 13:14:56;;;;;;;6.88;3.05;;;10.60;99.90;;;;;;5009218;28;20042;-63
2023/02/20 13:17:22;;;;;;;7.15;3.22;;;10.60;99.90;;;;;;5009371;28;20468;-64
2023/02/20 13:20:03;;;;;;;4.10;2.30;;;10.60;99.90;;;;;;5014523;28;20111;-68
2023/02/20 13:22:29;;;;;;;8.68;3.05;;;10.60;99.90;;;;;;5016041;28;20446;-64
2023/02/20 13:25:30;;;;;;;10.70;2.85;;;10.60;99.90;;;;;;5017767;28;20042;-64
2023/02/20 13:28:19;;;;;;;4.75;2.70;;;10.70;99.90;;;;;;5018446;28;20045;-64